sensor_id;sensor_type;location;lat;lon;timestamp;P1;durP1;ratioP1;P2;durP2;ratioP2
7517;SDS011;3800;48.922;9.444;2023-07-20T00:01:30;2.10;;;1.60;;
7517;SDS011;3800;48.922;9.444;2023-07-20T00:03:58;2.67;;;1.90;;
7517;SDS011;3800;48.922;9.444;2023-07-20T00:06:26;3.43;;;1.80;;
7517;SDS011;3800;48.922;9.444;2023-07-20T00:08:55;2.50;;;1.97;;
7517;SDS011;3800;48.922;9.444;2023-07-20T00:11:25;2.53;;;1.80;;
7517;SDS011;3800;48.922;9.444;2023-07-20T00:13:52;2.70;;;1.90;;
7517;SDS011;3800;48.922;9.444;2023-07-20T00:16:20;2.00;;;1.80;;
7517;SDS011;3800;48.922;9.444;2023-07-20T00:18:48;2.97;;;1.90;;
7517;SDS011;3800;48.922;9.444;2023-07-20T00:21:16;3.07;;;2.13;;
7517;SDS011;3800;48.922;9.444;2023-07-20T00:23:45;3.80;;;1.93;;
7517;SDS011;3800;48.922;9.444;2023-07-20T00:26:14;3.60;;;2.30;;
7517;SDS011;3800;48.922;9.444;2023-07-20T00:28:43;3.83;;;1.90;;
7517;SDS011;3800;48.922;9.444;2023-07-20T00:31:12;2.70;;;1.83;;
7517;SDS011;3800;48.922;9.444;2023-07-20T00:33:40;3.60;;;2.00;;
7517;SDS011;3800;48.922;9.444;2023-07-20T00:36:08;3.30;;;1.97;;
7517;SDS011;3800;48.922;9.444;2023-07-20T00:38:37;2.70;;;1.90;;
7517;SDS011;3800;48.922;9.444;2023-07-20T00:41:06;2.77;;;1.90;;
7517;SDS011;3800;48.922;9.444;2023-07-20T00:43:34;2.57;;;2.30;;
7517;SDS011;3800;48.922;9.444;2023-07-20T00:46:02;2.37;;;2.00;;
7517;SDS011;3800;48.922;9.444;2023-07-20T00:48:30;4.00;;;2.13;;
7517;SDS011;3800;48.922;9.444;2023-07-20T00:50:59;4.37;;;2.10;;
7517;SDS011;3800;48.922;9.444;2023-07-20T00:53:27;3.37;;;2.13;;
7517;SDS011;3800;48.922;9.444;2023-07-20T00:58:40;4.97;;;2.10;;
7517;SDS011;3800;48.922;9.444;2023-07-20T01:01:08;3.33;;;2.20;;
7517;SDS011;3800;48.922;9.444;2023-07-20T01:03:37;2.53;;;2.00;;
7517;SDS011;3800;48.922;9.444;2023-07-20T01:06:14;2.30;;;2.10;;
7517;SDS011;3800;48.922;9.444;2023-07-20T01:09:04;2.63;;;2.07;;
7517;SDS011;3800;48.922;9.444;2023-07-20T01:11:31;5.57;;;2.10;;
7517;SDS011;3800;48.922;9.444;2023-07-20T01:13:56;9.13;;;2.20;;
7517;SDS011;3800;48.922;9.444;2023-07-20T01:16:24;3.97;;;2.10;;
7517;SDS011;3800;48.922;9.444;2023-07-20T01:18:52;5.43;;;2.30;;
7517;SDS011;3800;48.922;9.444;2023-07-20T01:21:26;4.60;;;2.23;;
7517;SDS011;3800;48.922;9.444;2023-07-20T01:24:01;3.97;;;2.40;;
7517;SDS011;3800;48.922;9.444;2023-07-20T01:26:49;2.50;;;1.80;;
7517;SDS011;3800;48.922;9.444;2023-07-20T01:29:25;4.07;;;1.87;;
7517;SDS011;3800;48.922;9.444;2023-07-20T01:31:56;3.97;;;2.40;;
7517;SDS011;3800;48.922;9.444;2023-07-20T01:34:25;6.30;;;3.57;;
7517;SDS011;3800;48.922;9.444;2023-07-20T01:36:53;8.37;;;4.10;;
7517;SDS011;3800;48.922;9.444;2023-07-20T01:39:22;6.33;;;3.60;;
7517;SDS011;3800;48.922;9.444;2023-07-20T01:41:50;9.67;;;3.77;;
7517;SDS011;3800;48.922;9.444;2023-07-20T01:44:18;5.63;;;3.00;;
7517;SDS011;3800;48.922;9.444;2023-07-20T01:46:47;5.30;;;2.73;;
7517;SDS011;3800;48.922;9.444;2023-07-20T01:49:15;5.37;;;2.47;;
7517;SDS011;3800;48.922;9.444;2023-07-20T01:51:43;3.80;;;2.33;;
7517;SDS011;3800;48.922;9.444;2023-07-20T01:54:11;4.00;;;2.40;;
7517;SDS011;3800;48.922;9.444;2023-07-20T01:56:40;3.03;;;2.10;;
7517;SDS011;3800;48.922;9.444;2023-07-20T01:59:08;4.20;;;2.00;;
7517;SDS011;3800;48.922;9.444;2023-07-20T02:01:36;3.87;;;2.40;;
7517;SDS011;3800;48.922;9.444;2023-07-20T02:04:05;4.40;;;2.47;;
7517;SDS011;3800;48.922;9.444;2023-07-20T02:06:33;3.63;;;2.60;;
7517;SDS011;3800;48.922;9.444;2023-07-20T02:09:02;7.43;;;2.97;;
7517;SDS011;3800;48.922;9.444;2023-07-20T02:11:30;5.93;;;2.60;;
7517;SDS011;3800;48.922;9.444;2023-07-20T02:13:58;6.47;;;3.33;;
7517;SDS011;3800;48.922;9.444;2023-07-20T02:16:28;4.73;;;3.17;;
7517;SDS011;3800;48.922;9.444;2023-07-20T02:18:56;6.33;;;3.10;;
7517;SDS011;3800;48.922;9.444;2023-07-20T02:21:24;7.60;;;3.97;;
7517;SDS011;3800;48.922;9.444;2023-07-20T02:23:53;6.40;;;3.57;;
7517;SDS011;3800;48.922;9.444;2023-07-20T02:26:22;5.40;;;3.03;;
7517;SDS011;3800;48.922;9.444;2023-07-20T02:28:51;4.93;;;2.77;;
7517;SDS011;3800;48.922;9.444;2023-07-20T02:31:19;4.30;;;2.77;;
7517;SDS011;3800;48.922;9.444;2023-07-20T02:33:47;4.67;;;2.53;;
7517;SDS011;3800;48.922;9.444;2023-07-20T02:36:16;3.63;;;2.50;;
7517;SDS011;3800;48.922;9.444;2023-07-20T02:38:45;3.63;;;2.03;;
7517;SDS011;3800;48.922;9.444;2023-07-20T02:41:13;4.90;;;2.23;;
7517;SDS011;3800;48.922;9.444;2023-07-20T02:43:41;2.67;;;2.13;;
7517;SDS011;3800;48.922;9.444;2023-07-20T02:46:10;4.37;;;2.20;;
7517;SDS011;3800;48.922;9.444;2023-07-20T02:48:39;3.17;;;2.20;;
7517;SDS011;3800;48.922;9.444;2023-07-20T02:51:07;3.33;;;2.60;;
7517;SDS011;3800;48.922;9.444;2023-07-20T02:53:35;3.60;;;1.97;;
7517;SDS011;3800;48.922;9.444;2023-07-20T02:56:04;2.40;;;2.03;;
7517;SDS011;3800;48.922;9.444;2023-07-20T02:58:33;2.30;;;2.03;;
7517;SDS011;3800;48.922;9.444;2023-07-20T03:01:01;2.97;;;2.10;;
7517;SDS011;3800;48.922;9.444;2023-07-20T03:03:29;3.90;;;2.27;;
7517;SDS011;3800;48.922;9.444;2023-07-20T03:05:57;3.17;;;2.53;;
7517;SDS011;3800;48.922;9.444;2023-07-20T03:08:26;4.47;;;3.00;;
7517;SDS011;3800;48.922;9.444;2023-07-20T03:10:55;4.87;;;3.07;;
7517;SDS011;3800;48.922;9.444;2023-07-20T03:13:23;5.43;;;3.43;;
7517;SDS011;3800;48.922;9.444;2023-07-20T03:15:52;5.43;;;3.63;;
7517;SDS011;3800;48.922;9.444;2023-07-20T03:18:20;9.27;;;3.80;;
7517;SDS011;3800;48.922;9.444;2023-07-20T03:20:49;6.60;;;3.20;;
7517;SDS011;3800;48.922;9.444;2023-07-20T03:23:17;4.87;;;2.60;;
7517;SDS011;3800;48.922;9.444;2023-07-20T03:25:45;3.63;;;2.93;;
7517;SDS011;3800;48.922;9.444;2023-07-20T03:28:13;3.00;;;2.30;;
7517;SDS011;3800;48.922;9.444;2023-07-20T03:30:42;4.27;;;2.47;;
7517;SDS011;3800;48.922;9.444;2023-07-20T03:33:10;3.83;;;2.40;;
7517;SDS011;3800;48.922;9.444;2023-07-20T03:35:39;4.57;;;2.53;;
7517;SDS011;3800;48.922;9.444;2023-07-20T03:38:08;2.87;;;2.17;;
7517;SDS011;3800;48.922;9.444;2023-07-20T03:40:37;3.17;;;2.33;;
7517;SDS011;3800;48.922;9.444;2023-07-20T03:43:05;3.57;;;2.20;;
7517;SDS011;3800;48.922;9.444;2023-07-20T03:45:34;2.93;;;1.97;;
7517;SDS011;3800;48.922;9.444;2023-07-20T03:48:02;3.17;;;2.13;;
7517;SDS011;3800;48.922;9.444;2023-07-20T03:50:31;2.40;;;2.10;;
7517;SDS011;3800;48.922;9.444;2023-07-20T03:52:59;2.57;;;2.20;;
7517;SDS011;3800;48.922;9.444;2023-07-20T03:55:29;4.03;;;2.40;;
7517;SDS011;3800;48.922;9.444;2023-07-20T03:57:57;5.37;;;2.30;;
7517;SDS011;3800;48.922;9.444;2023-07-20T04:00:27;2.53;;;2.33;;
7517;SDS011;3800;48.922;9.444;2023-07-20T04:02:55;3.40;;;2.40;;
7517;SDS011;3800;48.922;9.444;2023-07-20T04:05:23;3.53;;;2.30;;
7517;SDS011;3800;48.922;9.444;2023-07-20T04:07:51;4.00;;;2.60;;
7517;SDS011;3800;48.922;9.444;2023-07-20T04:10:20;6.13;;;2.97;;
7517;SDS011;3800;48.922;9.444;2023-07-20T04:12:49;3.27;;;2.50;;
7517;SDS011;3800;48.922;9.444;2023-07-20T04:15:18;3.20;;;2.40;;
7517;SDS011;3800;48.922;9.444;2023-07-20T04:17:47;2.57;;;2.37;;
7517;SDS011;3800;48.922;9.444;2023-07-20T04:20:16;4.27;;;2.60;;
7517;SDS011;3800;48.922;9.444;2023-07-20T04:22:44;5.23;;;2.50;;
7517;SDS011;3800;48.922;9.444;2023-07-20T04:25:12;3.43;;;2.37;;
7517;SDS011;3800;48.922;9.444;2023-07-20T04:27:41;3.87;;;2.40;;
7517;SDS011;3800;48.922;9.444;2023-07-20T04:30:09;3.97;;;2.30;;
7517;SDS011;3800;48.922;9.444;2023-07-20T04:32:38;2.50;;;2.30;;
7517;SDS011;3800;48.922;9.444;2023-07-20T04:35:06;5.03;;;2.83;;
7517;SDS011;3800;48.922;9.444;2023-07-20T04:37:35;2.80;;;2.20;;
7517;SDS011;3800;48.922;9.444;2023-07-20T04:40:03;6.17;;;2.93;;
7517;SDS011;3800;48.922;9.444;2023-07-20T04:42:33;3.33;;;3.00;;
7517;SDS011;3800;48.922;9.444;2023-07-20T04:45:01;3.97;;;2.90;;
7517;SDS011;3800;48.922;9.444;2023-07-20T04:47:30;3.67;;;2.70;;
7517;SDS011;3800;48.922;9.444;2023-07-20T04:49:58;4.43;;;2.80;;
7517;SDS011;3800;48.922;9.444;2023-07-20T04:52:26;3.00;;;2.70;;
7517;SDS011;3800;48.922;9.444;2023-07-20T04:54:55;3.50;;;2.70;;
7517;SDS011;3800;48.922;9.444;2023-07-20T04:57:23;4.93;;;2.70;;
7517;SDS011;3800;48.922;9.444;2023-07-20T04:59:52;4.90;;;2.77;;
7517;SDS011;3800;48.922;9.444;2023-07-20T05:02:20;4.23;;;2.50;;
7517;SDS011;3800;48.922;9.444;2023-07-20T05:04:48;3.93;;;2.60;;
7517;SDS011;3800;48.922;9.444;2023-07-20T05:07:16;4.10;;;2.50;;
7517;SDS011;3800;48.922;9.444;2023-07-20T05:09:44;3.97;;;2.40;;
7517;SDS011;3800;48.922;9.444;2023-07-20T05:12:13;3.00;;;2.40;;
7517;SDS011;3800;48.922;9.444;2023-07-20T05:14:41;2.60;;;2.37;;
7517;SDS011;3800;48.922;9.444;2023-07-20T05:17:09;3.37;;;2.30;;
7517;SDS011;3800;48.922;9.444;2023-07-20T05:19:38;3.97;;;2.33;;
7517;SDS011;3800;48.922;9.444;2023-07-20T05:22:07;2.80;;;2.40;;
7517;SDS011;3800;48.922;9.444;2023-07-20T05:24:36;3.77;;;2.80;;
7517;SDS011;3800;48.922;9.444;2023-07-20T05:27:05;4.00;;;2.60;;
7517;SDS011;3800;48.922;9.444;2023-07-20T05:29:33;3.80;;;2.33;;
7517;SDS011;3800;48.922;9.444;2023-07-20T05:32:01;3.27;;;2.50;;
7517;SDS011;3800;48.922;9.444;2023-07-20T05:34:29;4.37;;;2.70;;
7517;SDS011;3800;48.922;9.444;2023-07-20T05:36:59;4.20;;;2.80;;
7517;SDS011;3800;48.922;9.444;2023-07-20T05:39:27;3.20;;;2.50;;
7517;SDS011;3800;48.922;9.444;2023-07-20T05:41:55;3.50;;;2.77;;
7517;SDS011;3800;48.922;9.444;2023-07-20T05:44:23;2.97;;;2.50;;
7517;SDS011;3800;48.922;9.444;2023-07-20T05:46:52;3.40;;;2.43;;
7517;SDS011;3800;48.922;9.444;2023-07-20T05:49:20;4.13;;;2.20;;
7517;SDS011;3800;48.922;9.444;2023-07-20T05:51:50;3.67;;;2.53;;
7517;SDS011;3800;48.922;9.444;2023-07-20T05:54:19;2.70;;;2.37;;
7517;SDS011;3800;48.922;9.444;2023-07-20T05:56:48;3.30;;;2.40;;
7517;SDS011;3800;48.922;9.444;2023-07-20T05:59:16;4.03;;;2.30;;
7517;SDS011;3800;48.922;9.444;2023-07-20T06:01:44;3.70;;;2.40;;
7517;SDS011;3800;48.922;9.444;2023-07-20T06:04:13;3.90;;;2.70;;
7517;SDS011;3800;48.922;9.444;2023-07-20T06:06:42;3.13;;;2.40;;
7517;SDS011;3800;48.922;9.444;2023-07-20T06:09:10;3.87;;;2.40;;
7517;SDS011;3800;48.922;9.444;2023-07-20T06:11:39;2.90;;;2.30;;
7517;SDS011;3800;48.922;9.444;2023-07-20T06:14:07;4.03;;;2.80;;
7517;SDS011;3800;48.922;9.444;2023-07-20T06:16:35;3.93;;;2.73;;
7517;SDS011;3800;48.922;9.444;2023-07-20T06:19:04;3.40;;;2.27;;
7517;SDS011;3800;48.922;9.444;2023-07-20T06:21:33;2.97;;;2.27;;
7517;SDS011;3800;48.922;9.444;2023-07-20T06:24:01;3.90;;;2.30;;
7517;SDS011;3800;48.922;9.444;2023-07-20T06:26:29;4.40;;;2.17;;
7517;SDS011;3800;48.922;9.444;2023-07-20T06:28:58;4.33;;;2.50;;
7517;SDS011;3800;48.922;9.444;2023-07-20T06:31:26;5.87;;;2.50;;
7517;SDS011;3800;48.922;9.444;2023-07-20T06:33:54;6.10;;;2.50;;
7517;SDS011;3800;48.922;9.444;2023-07-20T06:36:22;3.67;;;2.40;;
7517;SDS011;3800;48.922;9.444;2023-07-20T06:38:51;3.20;;;2.40;;
7517;SDS011;3800;48.922;9.444;2023-07-20T06:41:19;2.90;;;2.43;;
7517;SDS011;3800;48.922;9.444;2023-07-20T06:46:36;3.43;;;2.27;;
7517;SDS011;3800;48.922;9.444;2023-07-20T06:49:06;4.23;;;2.13;;
7517;SDS011;3800;48.922;9.444;2023-07-20T06:51:34;3.87;;;2.20;;
7517;SDS011;3800;48.922;9.444;2023-07-20T06:54:02;2.83;;;2.13;;
7517;SDS011;3800;48.922;9.444;2023-07-20T06:56:30;3.20;;;2.40;;
7517;SDS011;3800;48.922;9.444;2023-07-20T06:59:00;3.80;;;2.20;;
7517;SDS011;3800;48.922;9.444;2023-07-20T07:01:28;3.43;;;2.23;;
7517;SDS011;3800;48.922;9.444;2023-07-20T07:03:57;6.03;;;2.33;;
7517;SDS011;3800;48.922;9.444;2023-07-20T07:06:25;3.50;;;2.40;;
7517;SDS011;3800;48.922;9.444;2023-07-20T07:08:53;3.80;;;2.27;;
7517;SDS011;3800;48.922;9.444;2023-07-20T07:11:22;3.50;;;2.43;;
7517;SDS011;3800;48.922;9.444;2023-07-20T07:13:51;5.70;;;2.13;;
7517;SDS011;3800;48.922;9.444;2023-07-20T07:16:19;2.70;;;2.13;;
7517;SDS011;3800;48.922;9.444;2023-07-20T07:18:47;3.87;;;2.27;;
7517;SDS011;3800;48.922;9.444;2023-07-20T07:21:16;3.23;;;2.30;;
7517;SDS011;3800;48.922;9.444;2023-07-20T07:23:45;3.17;;;2.40;;
7517;SDS011;3800;48.922;9.444;2023-07-20T07:26:13;3.67;;;2.50;;
7517;SDS011;3800;48.922;9.444;2023-07-20T07:28:42;5.40;;;2.20;;
7517;SDS011;3800;48.922;9.444;2023-07-20T07:31:10;4.73;;;2.50;;
7517;SDS011;3800;48.922;9.444;2023-07-20T07:33:38;6.27;;;2.20;;
7517;SDS011;3800;48.922;9.444;2023-07-20T07:36:07;5.27;;;2.27;;
7517;SDS011;3800;48.922;9.444;2023-07-20T07:38:35;3.93;;;2.33;;
7517;SDS011;3800;48.922;9.444;2023-07-20T07:41:03;5.43;;;2.67;;
7517;SDS011;3800;48.922;9.444;2023-07-20T07:43:31;4.43;;;2.27;;
7517;SDS011;3800;48.922;9.444;2023-07-20T07:46:00;3.47;;;2.40;;
7517;SDS011;3800;48.922;9.444;2023-07-20T07:48:28;4.53;;;2.20;;
7517;SDS011;3800;48.922;9.444;2023-07-20T07:50:57;4.37;;;2.20;;
7517;SDS011;3800;48.922;9.444;2023-07-20T07:53:25;3.23;;;2.20;;
7517;SDS011;3800;48.922;9.444;2023-07-20T07:55:54;8.07;;;2.43;;
7517;SDS011;3800;48.922;9.444;2023-07-20T07:58:22;3.57;;;2.60;;
7517;SDS011;3800;48.922;9.444;2023-07-20T08:00:50;10.80;;;2.70;;
7517;SDS011;3800;48.922;9.444;2023-07-20T08:03:18;4.60;;;2.40;;
7517;SDS011;3800;48.922;9.444;2023-07-20T08:05:47;3.50;;;2.13;;
7517;SDS011;3800;48.922;9.444;2023-07-20T08:08:16;4.03;;;2.10;;
7517;SDS011;3800;48.922;9.444;2023-07-20T08:10:44;5.20;;;2.33;;
7517;SDS011;3800;48.922;9.444;2023-07-20T08:13:12;5.10;;;2.30;;
7517;SDS011;3800;48.922;9.444;2023-07-20T08:15:48;3.23;;;2.23;;
7517;SDS011;3800;48.922;9.444;2023-07-20T08:18:09;2.67;;;2.27;;
7517;SDS011;3800;48.922;9.444;2023-07-20T08:20:38;4.67;;;1.93;;
7517;SDS011;3800;48.922;9.444;2023-07-20T08:23:07;3.83;;;2.00;;
7517;SDS011;3800;48.922;9.444;2023-07-20T08:25:36;2.37;;;1.70;;
7517;SDS011;3800;48.922;9.444;2023-07-20T08:28:04;2.73;;;2.10;;
7517;SDS011;3800;48.922;9.444;2023-07-20T08:33:07;2.60;;;2.20;;
7517;SDS011;3800;48.922;9.444;2023-07-20T08:35:35;3.97;;;2.13;;
7517;SDS011;3800;48.922;9.444;2023-07-20T08:38:03;3.37;;;2.07;;
7517;SDS011;3800;48.922;9.444;2023-07-20T08:40:32;2.53;;;1.90;;
7517;SDS011;3800;48.922;9.444;2023-07-20T08:43:00;2.73;;;2.17;;
7517;SDS011;3800;48.922;9.444;2023-07-20T08:45:28;3.17;;;2.20;;
7517;SDS011;3800;48.922;9.444;2023-07-20T08:47:57;7.57;;;2.40;;
7517;SDS011;3800;48.922;9.444;2023-07-20T08:50:26;5.27;;;2.10;;
7517;SDS011;3800;48.922;9.444;2023-07-20T08:52:54;4.07;;;2.07;;
7517;SDS011;3800;48.922;9.444;2023-07-20T08:55:23;5.63;;;2.20;;
7517;SDS011;3800;48.922;9.444;2023-07-20T08:57:52;3.93;;;1.87;;
7517;SDS011;3800;48.922;9.444;2023-07-20T09:00:21;2.80;;;1.90;;
7517;SDS011;3800;48.922;9.444;2023-07-20T09:02:50;2.93;;;1.90;;
7517;SDS011;3800;48.922;9.444;2023-07-20T09:05:18;4.33;;;2.30;;
7517;SDS011;3800;48.922;9.444;2023-07-20T09:07:46;3.70;;;1.97;;
7517;SDS011;3800;48.922;9.444;2023-07-20T09:10:15;3.57;;;1.77;;
7517;SDS011;3800;48.922;9.444;2023-07-20T09:12:43;5.63;;;2.50;;
7517;SDS011;3800;48.922;9.444;2023-07-20T09:15:11;5.13;;;2.00;;
7517;SDS011;3800;48.922;9.444;2023-07-20T09:17:45;4.37;;;2.10;;
7517;SDS011;3800;48.922;9.444;2023-07-20T09:20:08;3.63;;;1.90;;
7517;SDS011;3800;48.922;9.444;2023-07-20T09:22:37;5.77;;;2.10;;
7517;SDS011;3800;48.922;9.444;2023-07-20T09:25:08;6.97;;;2.00;;
7517;SDS011;3800;48.922;9.444;2023-07-20T09:27:45;19.37;;;4.03;;
7517;SDS011;3800;48.922;9.444;2023-07-20T09:30:13;2.37;;;1.93;;
7517;SDS011;3800;48.922;9.444;2023-07-20T09:32:45;3.63;;;2.37;;
7517;SDS011;3800;48.922;9.444;2023-07-20T09:35:13;4.93;;;2.10;;
7517;SDS011;3800;48.922;9.444;2023-07-20T09:37:48;3.50;;;2.10;;
7517;SDS011;3800;48.922;9.444;2023-07-20T09:40:20;3.20;;;2.17;;
7517;SDS011;3800;48.922;9.444;2023-07-20T09:42:48;6.50;;;2.20;;
7517;SDS011;3800;48.922;9.444;2023-07-20T09:45:16;2.47;;;1.70;;
7517;SDS011;3800;48.922;9.444;2023-07-20T09:47:45;2.00;;;1.80;;
7517;SDS011;3800;48.922;9.444;2023-07-20T09:50:13;4.10;;;1.80;;
7517;SDS011;3800;48.922;9.444;2023-07-20T09:52:41;3.40;;;1.90;;
7517;SDS011;3800;48.922;9.444;2023-07-20T09:55:10;4.13;;;1.80;;
7517;SDS011;3800;48.922;9.444;2023-07-20T09:57:38;5.43;;;1.73;;
7517;SDS011;3800;48.922;9.444;2023-07-20T10:00:07;4.50;;;1.70;;
7517;SDS011;3800;48.922;9.444;2023-07-20T10:02:37;2.13;;;1.80;;
7517;SDS011;3800;48.922;9.444;2023-07-20T10:05:04;2.83;;;1.93;;
7517;SDS011;3800;48.922;9.444;2023-07-20T10:07:33;4.00;;;1.80;;
7517;SDS011;3800;48.922;9.444;2023-07-20T10:10:01;2.00;;;1.50;;
7517;SDS011;3800;48.922;9.444;2023-07-20T10:12:30;2.80;;;1.67;;
7517;SDS011;3800;48.922;9.444;2023-07-20T10:15:08;4.23;;;1.60;;
7517;SDS011;3800;48.922;9.444;2023-07-20T10:17:45;4.03;;;1.53;;
7517;SDS011;3800;48.922;9.444;2023-07-20T10:20:14;3.53;;;1.90;;
7517;SDS011;3800;48.922;9.444;2023-07-20T10:22:42;2.13;;;1.50;;
7517;SDS011;3800;48.922;9.444;2023-07-20T10:25:11;2.27;;;1.60;;
7517;SDS011;3800;48.922;9.444;2023-07-20T10:27:39;1.50;;;1.40;;
7517;SDS011;3800;48.922;9.444;2023-07-20T10:30:08;1.97;;;1.73;;
7517;SDS011;3800;48.922;9.444;2023-07-20T10:32:37;2.63;;;1.57;;
7517;SDS011;3800;48.922;9.444;2023-07-20T10:35:11;2.10;;;1.50;;
7517;SDS011;3800;48.922;9.444;2023-07-20T10:37:54;2.30;;;1.50;;
7517;SDS011;3800;48.922;9.444;2023-07-20T10:40:27;2.20;;;1.60;;
7517;SDS011;3800;48.922;9.444;2023-07-20T10:42:57;2.20;;;1.40;;
7517;SDS011;3800;48.922;9.444;2023-07-20T10:45:36;3.23;;;1.40;;
7517;SDS011;3800;48.922;9.444;2023-07-20T10:48:04;3.33;;;1.63;;
7517;SDS011;3800;48.922;9.444;2023-07-20T10:50:33;4.20;;;1.70;;
7517;SDS011;3800;48.922;9.444;2023-07-20T10:53:05;2.50;;;1.50;;
7517;SDS011;3800;48.922;9.444;2023-07-20T10:55:40;2.33;;;1.60;;
7517;SDS011;3800;48.922;9.444;2023-07-20T10:58:09;3.27;;;1.53;;
7517;SDS011;3800;48.922;9.444;2023-07-20T11:00:54;1.73;;;1.40;;
7517;SDS011;3800;48.922;9.444;2023-07-20T11:03:26;2.97;;;1.30;;
7517;SDS011;3800;48.922;9.444;2023-07-20T11:05:54;2.77;;;1.33;;
7517;SDS011;3800;48.922;9.444;2023-07-20T11:13:54;2.90;;;1.50;;
7517;SDS011;3800;48.922;9.444;2023-07-20T11:19:00;2.10;;;1.33;;
7517;SDS011;3800;48.922;9.444;2023-07-20T11:21:29;3.43;;;1.50;;
7517;SDS011;3800;48.922;9.444;2023-07-20T11:23:57;1.60;;;1.10;;
7517;SDS011;3800;48.922;9.444;2023-07-20T11:26:25;3.03;;;1.30;;
7517;SDS011;3800;48.922;9.444;2023-07-20T11:28:54;2.70;;;1.30;;
7517;SDS011;3800;48.922;9.444;2023-07-20T11:31:23;3.97;;;1.60;;
7517;SDS011;3800;48.922;9.444;2023-07-20T11:33:51;2.17;;;1.20;;
7517;SDS011;3800;48.922;9.444;2023-07-20T11:36:19;1.67;;;1.53;;
7517;SDS011;3800;48.922;9.444;2023-07-20T11:38:48;2.07;;;1.40;;
7517;SDS011;3800;48.922;9.444;2023-07-20T11:41:17;6.93;;;1.70;;
7517;SDS011;3800;48.922;9.444;2023-07-20T11:43:45;3.03;;;1.30;;
7517;SDS011;3800;48.922;9.444;2023-07-20T11:46:13;3.37;;;1.50;;
7517;SDS011;3800;48.922;9.444;2023-07-20T11:48:41;1.67;;;1.40;;
7517;SDS011;3800;48.922;9.444;2023-07-20T11:51:13;4.57;;;1.30;;
7517;SDS011;3800;48.922;9.444;2023-07-20T11:53:41;1.63;;;1.40;;
7517;SDS011;3800;48.922;9.444;2023-07-20T11:56:09;2.77;;;1.50;;
7517;SDS011;3800;48.922;9.444;2023-07-20T11:58:46;3.17;;;1.50;;
7517;SDS011;3800;48.922;9.444;2023-07-20T12:01:15;2.40;;;1.53;;
7517;SDS011;3800;48.922;9.444;2023-07-20T12:03:43;2.13;;;1.30;;
7517;SDS011;3800;48.922;9.444;2023-07-20T12:06:12;1.83;;;1.43;;
7517;SDS011;3800;48.922;9.444;2023-07-20T12:08:41;2.17;;;1.50;;
7517;SDS011;3800;48.922;9.444;2023-07-20T12:11:09;4.67;;;1.67;;
7517;SDS011;3800;48.922;9.444;2023-07-20T12:13:41;2.73;;;1.43;;
7517;SDS011;3800;48.922;9.444;2023-07-20T12:16:09;2.67;;;1.70;;
7517;SDS011;3800;48.922;9.444;2023-07-20T12:18:37;4.23;;;1.80;;
7517;SDS011;3800;48.922;9.444;2023-07-20T12:21:05;3.37;;;1.50;;
7517;SDS011;3800;48.922;9.444;2023-07-20T12:23:35;2.20;;;1.50;;
7517;SDS011;3800;48.922;9.444;2023-07-20T12:26:03;3.27;;;1.50;;
7517;SDS011;3800;48.922;9.444;2023-07-20T12:28:31;2.80;;;1.40;;
7517;SDS011;3800;48.922;9.444;2023-07-20T12:30:59;2.70;;;1.60;;
7517;SDS011;3800;48.922;9.444;2023-07-20T12:33:28;2.50;;;1.60;;
7517;SDS011;3800;48.922;9.444;2023-07-20T12:35:57;1.77;;;1.20;;
7517;SDS011;3800;48.922;9.444;2023-07-20T12:38:25;2.23;;;1.40;;
7517;SDS011;3800;48.922;9.444;2023-07-20T12:40:53;5.10;;;1.87;;
7517;SDS011;3800;48.922;9.444;2023-07-20T12:43:22;2.73;;;1.50;;
7517;SDS011;3800;48.922;9.444;2023-07-20T12:45:51;3.43;;;1.50;;
7517;SDS011;3800;48.922;9.444;2023-07-20T12:48:19;1.90;;;1.50;;
7517;SDS011;3800;48.922;9.444;2023-07-20T12:50:47;2.00;;;1.47;;
7517;SDS011;3800;48.922;9.444;2023-07-20T12:53:15;2.80;;;1.40;;
7517;SDS011;3800;48.922;9.444;2023-07-20T12:55:44;3.00;;;1.70;;
7517;SDS011;3800;48.922;9.444;2023-07-20T12:58:12;2.37;;;1.60;;
7517;SDS011;3800;48.922;9.444;2023-07-20T13:00:40;2.87;;;1.40;;
7517;SDS011;3800;48.922;9.444;2023-07-20T13:03:09;3.13;;;1.63;;
7517;SDS011;3800;48.922;9.444;2023-07-20T13:05:37;4.87;;;1.50;;
7517;SDS011;3800;48.922;9.444;2023-07-20T13:08:06;4.70;;;1.90;;
7517;SDS011;3800;48.922;9.444;2023-07-20T13:10:35;2.00;;;1.60;;
7517;SDS011;3800;48.922;9.444;2023-07-20T13:13:03;4.13;;;1.60;;
7517;SDS011;3800;48.922;9.444;2023-07-20T13:15:32;3.27;;;1.70;;
7517;SDS011;3800;48.922;9.444;2023-07-20T13:17:59;2.67;;;1.63;;
7517;SDS011;3800;48.922;9.444;2023-07-20T13:20:28;4.43;;;1.47;;
7517;SDS011;3800;48.922;9.444;2023-07-20T13:22:56;3.17;;;1.60;;
7517;SDS011;3800;48.922;9.444;2023-07-20T13:25:25;2.83;;;1.57;;
7517;SDS011;3800;48.922;9.444;2023-07-20T13:27:53;3.23;;;1.50;;
7517;SDS011;3800;48.922;9.444;2023-07-20T13:30:21;2.83;;;1.50;;
7517;SDS011;3800;48.922;9.444;2023-07-20T13:32:49;1.60;;;1.27;;
7517;SDS011;3800;48.922;9.444;2023-07-20T13:35:17;3.13;;;1.40;;
7517;SDS011;3800;48.922;9.444;2023-07-20T13:37:46;2.23;;;1.60;;
7517;SDS011;3800;48.922;9.444;2023-07-20T13:40:15;3.77;;;1.77;;
7517;SDS011;3800;48.922;9.444;2023-07-20T13:42:43;2.40;;;1.63;;
7517;SDS011;3800;48.922;9.444;2023-07-20T13:45:11;3.20;;;1.67;;
7517;SDS011;3800;48.922;9.444;2023-07-20T13:47:40;3.97;;;1.30;;
7517;SDS011;3800;48.922;9.444;2023-07-20T13:50:09;7.17;;;1.80;;
7517;SDS011;3800;48.922;9.444;2023-07-20T13:52:37;2.00;;;1.70;;
7517;SDS011;3800;48.922;9.444;2023-07-20T13:55:05;1.90;;;1.50;;
7517;SDS011;3800;48.922;9.444;2023-07-20T13:57:34;2.40;;;1.60;;
7517;SDS011;3800;48.922;9.444;2023-07-20T14:00:03;3.80;;;1.70;;
7517;SDS011;3800;48.922;9.444;2023-07-20T14:02:31;3.73;;;1.60;;
7517;SDS011;3800;48.922;9.444;2023-07-20T14:04:59;3.67;;;1.50;;
7517;SDS011;3800;48.922;9.444;2023-07-20T14:07:28;2.00;;;1.50;;
7517;SDS011;3800;48.922;9.444;2023-07-20T14:09:56;1.83;;;1.53;;
7517;SDS011;3800;48.922;9.444;2023-07-20T14:12:25;2.87;;;1.70;;
7517;SDS011;3800;48.922;9.444;2023-07-20T14:14:54;2.50;;;1.60;;
7517;SDS011;3800;48.922;9.444;2023-07-20T14:17:21;3.20;;;1.50;;
7517;SDS011;3800;48.922;9.444;2023-07-20T14:19:50;2.53;;;1.60;;
7517;SDS011;3800;48.922;9.444;2023-07-20T14:22:19;2.47;;;1.40;;
7517;SDS011;3800;48.922;9.444;2023-07-20T14:24:47;3.40;;;1.53;;
7517;SDS011;3800;48.922;9.444;2023-07-20T14:27:15;1.97;;;1.53;;
7517;SDS011;3800;48.922;9.444;2023-07-20T14:29:44;2.90;;;1.50;;
7517;SDS011;3800;48.922;9.444;2023-07-20T14:32:12;3.23;;;1.50;;
7517;SDS011;3800;48.922;9.444;2023-07-20T14:34:40;3.30;;;1.60;;
7517;SDS011;3800;48.922;9.444;2023-07-20T14:37:08;2.07;;;1.47;;
7517;SDS011;3800;48.922;9.444;2023-07-20T14:39:37;3.90;;;1.37;;
7517;SDS011;3800;48.922;9.444;2023-07-20T14:42:05;4.73;;;1.40;;
7517;SDS011;3800;48.922;9.444;2023-07-20T14:44:35;2.93;;;1.40;;
7517;SDS011;3800;48.922;9.444;2023-07-20T14:47:03;1.97;;;1.40;;
7517;SDS011;3800;48.922;9.444;2023-07-20T14:49:31;3.70;;;1.40;;
7517;SDS011;3800;48.922;9.444;2023-07-20T14:52:00;4.13;;;1.67;;
7517;SDS011;3800;48.922;9.444;2023-07-20T14:54:28;3.00;;;1.60;;
7517;SDS011;3800;48.922;9.444;2023-07-20T14:56:56;1.83;;;1.30;;
7517;SDS011;3800;48.922;9.444;2023-07-20T14:59:24;2.63;;;1.40;;
7517;SDS011;3800;48.922;9.444;2023-07-20T15:01:53;2.93;;;1.43;;
7517;SDS011;3800;48.922;9.444;2023-07-20T15:04:22;3.00;;;1.70;;
7517;SDS011;3800;48.922;9.444;2023-07-20T15:06:51;2.37;;;1.30;;
7517;SDS011;3800;48.922;9.444;2023-07-20T15:09:19;1.93;;;1.33;;
7517;SDS011;3800;48.922;9.444;2023-07-20T15:11:47;3.20;;;1.50;;
7517;SDS011;3800;48.922;9.444;2023-07-20T15:14:16;3.37;;;1.70;;
7517;SDS011;3800;48.922;9.444;2023-07-20T15:16:45;4.80;;;1.30;;
7517;SDS011;3800;48.922;9.444;2023-07-20T15:19:13;1.73;;;1.23;;
7517;SDS011;3800;48.922;9.444;2023-07-20T15:21:41;1.93;;;1.60;;
7517;SDS011;3800;48.922;9.444;2023-07-20T15:24:10;2.03;;;1.43;;
7517;SDS011;3800;48.922;9.444;2023-07-20T15:26:38;2.53;;;1.30;;
7517;SDS011;3800;48.922;9.444;2023-07-20T15:29:06;3.27;;;1.53;;
7517;SDS011;3800;48.922;9.444;2023-07-20T15:31:34;2.70;;;1.30;;
7517;SDS011;3800;48.922;9.444;2023-07-20T15:34:03;2.67;;;1.40;;
7517;SDS011;3800;48.922;9.444;2023-07-20T15:36:31;4.90;;;1.37;;
7517;SDS011;3800;48.922;9.444;2023-07-20T15:39:00;2.00;;;1.40;;
7517;SDS011;3800;48.922;9.444;2023-07-20T15:41:28;2.93;;;1.40;;